createdAt,value
2022-08-26T00:01:54.530Z,0.70
2022-08-26T00:04:23.823Z,0.70
2022-08-26T00:06:51.689Z,0.77
2022-08-26T00:09:18.612Z,0.77
2022-08-26T00:11:49.076Z,1.00
2022-08-26T00:14:18.319Z,1.25
2022-08-26T00:16:55.181Z,1.10
2022-08-26T00:19:23.710Z,1.30
2022-08-26T00:21:54.277Z,1.25
2022-08-26T00:24:23.647Z,1.25
2022-08-26T00:26:53.547Z,1.30
2022-08-26T00:29:21.215Z,1.35
2022-08-26T00:31:48.722Z,1.30
2022-08-26T00:34:19.257Z,1.15
2022-08-26T00:36:47.454Z,0.98
2022-08-26T00:39:16.267Z,1.30
2022-08-26T00:41:43.586Z,1.10
2022-08-26T00:44:13.235Z,1.30
2022-08-26T00:46:54.102Z,1.05
2022-08-26T00:49:37.114Z,1.17
2022-08-26T00:52:09.789Z,1.10
2022-08-26T00:54:46.785Z,0.80
2022-08-26T00:57:17.406Z,0.88
2022-08-26T00:59:56.778Z,0.90
2022-08-26T01:02:24.923Z,1.00
2022-08-26T01:04:58.772Z,0.70
2022-08-26T01:07:30.211Z,0.93
2022-08-26T01:10:03.446Z,1.00
2022-08-26T01:12:35.158Z,1.30
2022-08-26T01:15:06.611Z,1.00
2022-08-26T01:17:33.876Z,1.00
2022-08-26T01:20:11.499Z,0.95
2022-08-26T01:23:03.865Z,1.10
2022-08-26T01:25:33.835Z,1.10
2022-08-26T01:28:05.779Z,0.82
2022-08-26T01:30:34.210Z,1.17
2022-08-26T01:33:04.910Z,1.30
2022-08-26T01:35:32.059Z,1.65
2022-08-26T01:38:00.988Z,1.48
2022-08-26T01:40:32.771Z,1.70
2022-08-26T01:43:04.654Z,1.30
2022-08-26T01:45:36.278Z,1.00
2022-08-26T01:48:07.970Z,1.08
2022-08-26T01:50:36.940Z,1.00
2022-08-26T01:53:09.524Z,1.50
2022-08-26T01:55:41.264Z,1.10
2022-08-26T01:58:15.028Z,1.17
2022-08-26T02:00:42.167Z,1.10
2022-08-26T02:03:29.848Z,1.25
2022-08-26T02:06:04.508Z,0.95
2022-08-26T02:08:43.571Z,1.10
2022-08-26T02:11:12.192Z,1.00
2022-08-26T02:13:44.051Z,1.20
2022-08-26T02:16:12.800Z,1.50
2022-08-26T02:18:43.828Z,1.10
2022-08-26T02:21:14.102Z,0.90
2022-08-26T02:23:41.880Z,1.33
2022-08-26T02:26:19.708Z,0.82
2022-08-26T02:29:19.701Z,0.88
2022-08-26T02:31:48.579Z,1.00
2022-08-26T02:34:21.555Z,0.95
2022-08-26T02:36:49.399Z,0.85
2022-08-26T02:39:22.338Z,0.95
2022-08-26T02:41:49.750Z,0.85
2022-08-26T02:44:16.636Z,0.60
2022-08-26T02:46:47.035Z,0.93
2022-08-26T02:49:17.712Z,0.90
2022-08-26T02:51:44.597Z,1.00
2022-08-26T02:54:11.944Z,1.00
2022-08-26T02:56:38.801Z,0.90
2022-08-26T02:59:06.153Z,0.90
2022-08-26T03:01:35.953Z,0.98
2022-08-26T03:04:05.544Z,0.98
2022-08-26T03:06:32.619Z,0.90
2022-08-26T03:08:59.759Z,1.00
2022-08-26T03:11:30.897Z,1.02
2022-08-26T03:14:00.689Z,0.90
2022-08-26T03:16:37.548Z,1.00
2022-08-26T03:19:06.659Z,0.98
2022-08-26T03:21:36.214Z,1.20
2022-08-26T03:24:03.937Z,0.90
2022-08-26T03:26:31.049Z,0.80
2022-08-26T03:29:16.789Z,1.35
2022-08-26T03:31:44.308Z,1.20
2022-08-26T03:34:14.222Z,0.90
2022-08-26T03:36:41.686Z,0.80
2022-08-26T03:39:09.134Z,0.85
2022-08-26T03:41:37.004Z,0.80
2022-08-26T03:44:05.844Z,0.90
2022-08-26T03:46:33.655Z,0.80
2022-08-26T03:49:02.318Z,0.82
2022-08-26T03:51:29.820Z,1.45
2022-08-26T03:53:59.029Z,1.20
2022-08-26T03:56:25.943Z,1.38
2022-08-26T03:58:53.146Z,0.90
2022-08-26T04:01:20.329Z,1.05
2022-08-26T04:04:00.354Z,0.80
2022-08-26T04:06:42.975Z,0.80
2022-08-26T04:09:15.667Z,0.88
2022-08-26T04:11:44.270Z,1.10
2022-08-26T04:14:17.519Z,0.95
2022-08-26T04:16:48.354Z,1.08
2022-08-26T04:19:17.149Z,1.40
2022-08-26T04:21:45.334Z,1.27
2022-08-26T04:24:15.624Z,1.10
2022-08-26T04:26:43.834Z,1.00
2022-08-26T04:29:14.696Z,1.00
2022-08-26T04:31:42.480Z,0.98
2022-08-26T04:34:10.914Z,0.90
2022-08-26T04:36:38.581Z,0.93
2022-08-26T04:39:05.634Z,1.00
2022-08-26T04:41:33.132Z,0.70
2022-08-26T04:44:01.902Z,0.75
2022-08-26T04:46:29.375Z,0.90
2022-08-26T04:48:56.371Z,0.80
2022-08-26T04:51:29.580Z,1.10
2022-08-26T04:53:57.961Z,0.90
2022-08-26T04:56:34.404Z,1.10
2022-08-26T04:59:02.958Z,1.15
2022-08-26T05:01:31.685Z,1.10
2022-08-26T05:03:59.076Z,0.80
2022-08-26T05:06:26.297Z,0.90
2022-08-26T05:08:54.191Z,1.00
2022-08-26T05:11:22.092Z,1.13
2022-08-26T05:13:49.390Z,0.75
2022-08-26T05:16:17.312Z,0.90
2022-08-26T05:18:45.735Z,0.90
2022-08-26T05:21:24.954Z,0.70
2022-08-26T05:23:54.799Z,1.00
2022-08-26T05:26:26.915Z,1.00
2022-08-26T05:28:55.356Z,1.00
2022-08-26T05:31:33.489Z,0.80
2022-08-26T05:34:03.662Z,0.80
2022-08-26T05:36:33.468Z,0.80
2022-08-26T05:39:01.351Z,0.80
2022-08-26T05:41:36.120Z,0.80
2022-08-26T05:44:06.057Z,0.80
2022-08-26T05:46:33.518Z,1.00
2022-08-26T05:49:02.565Z,0.70
2022-08-26T05:51:30.561Z,0.82
2022-08-26T05:53:58.523Z,0.88
2022-08-26T05:56:27.547Z,0.90
2022-08-26T05:58:56.373Z,0.90
2022-08-26T06:01:27.424Z,0.80
2022-08-26T06:03:59.633Z,0.98
2022-08-26T06:06:32.026Z,0.80
2022-08-26T06:09:00.498Z,0.95
2022-08-26T06:11:29.139Z,0.60
2022-08-26T06:14:03.129Z,0.80
2022-08-26T06:16:33.716Z,0.60
2022-08-26T06:19:03.815Z,0.55
2022-08-26T06:21:42.619Z,0.70
2022-08-26T06:24:30.697Z,0.82
2022-08-26T06:27:04.718Z,0.63
2022-08-26T06:29:33.844Z,0.60
2022-08-26T06:32:01.918Z,0.55
2022-08-26T06:34:30.465Z,0.60
2022-08-26T06:36:59.655Z,0.60
2022-08-26T06:39:26.570Z,0.50
2022-08-26T06:41:57.549Z,0.50
2022-08-26T06:44:24.510Z,0.60
2022-08-26T06:46:51.398Z,0.52
2022-08-26T06:49:18.602Z,0.40
2022-08-26T06:51:54.906Z,0.68
2022-08-26T06:54:22.102Z,1.60
2022-08-26T06:56:49.613Z,2.63
2022-08-26T06:59:16.537Z,3.10
2022-08-26T07:01:45.079Z,3.65
2022-08-26T07:04:15.549Z,4.18
2022-08-26T07:06:50.263Z,3.80
2022-08-26T07:09:22.204Z,5.57
2022-08-26T07:11:49.318Z,5.07
2022-08-26T07:14:19.337Z,5.68
2022-08-26T07:16:49.481Z,6.20
2022-08-26T07:19:30.386Z,5.18
2022-08-26T07:22:03.386Z,5.75
2022-08-26T07:24:32.277Z,5.38
2022-08-26T07:27:05.389Z,6.18
2022-08-26T07:29:33.257Z,4.80
2022-08-26T07:32:00.648Z,4.20
2022-08-26T07:34:28.134Z,4.40
2022-08-26T07:36:55.302Z,5.55
2022-08-26T07:39:23.122Z,6.03
2022-08-26T07:41:50.728Z,5.20
2022-08-26T07:44:18.032Z,5.47
2022-08-26T07:46:52.380Z,5.13
2022-08-26T07:49:24.398Z,5.60
2022-08-26T07:51:51.659Z,4.97
2022-08-26T07:54:19.089Z,4.95
2022-08-26T07:56:48.257Z,7.05
2022-08-26T07:59:17.653Z,7.78
2022-08-26T08:01:45.475Z,9.73
2022-08-26T08:04:14.059Z,9.00
2022-08-26T08:06:41.720Z,7.68
2022-08-26T08:09:12.172Z,8.43
2022-08-26T08:11:39.722Z,7.53
2022-08-26T08:14:08.513Z,5.95
2022-08-26T08:16:42.362Z,6.05
2022-08-26T08:19:14.577Z,7.00
2022-08-26T08:21:42.455Z,5.28
2022-08-26T08:24:11.182Z,5.38
2022-08-26T08:26:38.274Z,7.28
2022-08-26T08:29:06.250Z,6.15
2022-08-26T08:34:21.701Z,5.35
2022-08-26T08:36:48.968Z,6.60
2022-08-26T08:39:17.345Z,5.60
2022-08-26T08:42:00.379Z,6.00
2022-08-26T08:47:03.850Z,5.40
2022-08-26T08:49:32.546Z,5.50
2022-08-26T08:52:05.377Z,6.53
2022-08-26T08:54:33.975Z,5.60
2022-08-26T08:57:41.405Z,4.90
2022-08-26T09:00:13.710Z,4.40
2022-08-26T09:03:06.689Z,4.25
2022-08-26T09:05:48.545Z,4.70
2022-08-26T09:08:21.690Z,5.18
2022-08-26T09:10:56.161Z,4.93
2022-08-26T09:13:26.009Z,4.32
2022-08-26T09:16:15.895Z,5.68
2022-08-26T09:18:59.634Z,5.35
2022-08-26T09:21:27.403Z,5.00
2022-08-26T09:23:57.010Z,4.78
2022-08-26T09:26:50.052Z,4.72
2022-08-26T09:29:25.441Z,4.60
2022-08-26T09:32:12.903Z,4.88
2022-08-26T09:34:55.829Z,4.95
2022-08-26T09:37:43.297Z,5.65
2022-08-26T09:40:19.206Z,5.13
2022-08-26T09:42:48.191Z,4.32
2022-08-26T09:45:15.531Z,3.70
2022-08-26T09:47:47.081Z,6.07
2022-08-26T09:50:30.024Z,6.80
2022-08-26T09:53:17.410Z,7.30
2022-08-26T09:55:50.860Z,5.60
2022-08-26T09:58:35.347Z,6.68
2022-08-26T10:01:08.699Z,6.78
2022-08-26T10:03:38.065Z,6.10
2022-08-26T10:06:17.413Z,7.00
2022-08-26T10:08:47.637Z,5.55
2022-08-26T10:11:19.636Z,4.75
2022-08-26T10:14:04.792Z,4.22
2022-08-26T10:16:43.353Z,5.63
2022-08-26T10:19:15.812Z,4.90
2022-08-26T10:22:00.356Z,6.97
2022-08-26T10:24:53.150Z,7.20
2022-08-26T10:27:43.541Z,5.43
2022-08-26T10:30:21.371Z,4.50
2022-08-26T10:33:00.796Z,6.07
2022-08-26T10:35:29.163Z,5.30
2022-08-26T10:38:03.542Z,5.40
2022-08-26T10:40:55.216Z,4.00
2022-08-26T10:43:33.679Z,5.05
2022-08-26T10:49:01.644Z,4.90
2022-08-26T10:51:36.784Z,5.97
2022-08-26T10:54:32.738Z,6.05
2022-08-26T10:57:47.521Z,5.45
2022-08-26T11:00:46.190Z,6.10
2022-08-26T11:03:42.222Z,7.43
2022-08-26T11:06:30.825Z,7.95
2022-08-26T11:11:48.774Z,6.55
2022-08-26T11:14:23.501Z,5.70
2022-08-26T11:17:00.359Z,5.72
2022-08-26T11:19:59.466Z,6.30
2022-08-26T11:22:29.478Z,7.32
2022-08-26T11:24:56.441Z,6.60
2022-08-26T11:27:31.314Z,6.18
2022-08-26T11:30:04.529Z,5.93
2022-08-26T11:32:34.202Z,6.13
2022-08-26T11:35:04.512Z,8.05
2022-08-26T11:37:41.358Z,7.57
2022-08-26T11:40:18.038Z,6.18
2022-08-26T11:42:54.474Z,7.65
2022-08-26T11:45:44.341Z,7.68
2022-08-26T11:48:33.450Z,7.75
2022-08-26T11:51:11.231Z,7.55
2022-08-26T11:53:47.159Z,6.90
2022-08-26T11:56:33.266Z,6.60
2022-08-26T11:59:03.388Z,7.65
2022-08-26T12:01:35.697Z,7.55
2022-08-26T12:04:31.425Z,7.10
2022-08-26T12:07:00.697Z,7.47
2022-08-26T12:09:31.403Z,9.00
2022-08-26T12:12:12.456Z,9.52
2022-08-26T12:14:39.698Z,9.90
2022-08-26T12:17:26.920Z,8.50
2022-08-26T12:19:53.866Z,10.00
2022-08-26T12:22:27.118Z,11.18
2022-08-26T12:25:00.291Z,10.60
2022-08-26T12:27:32.871Z,9.27
2022-08-26T12:30:19.255Z,8.88
2022-08-26T12:32:58.955Z,8.60
2022-08-26T12:35:28.933Z,9.82
2022-08-26T12:37:57.226Z,10.63
2022-08-26T12:40:35.965Z,9.30
2022-08-26T12:43:07.257Z,9.27
2022-08-26T12:45:36.104Z,7.63
2022-08-26T12:48:10.570Z,7.47
2022-08-26T12:50:49.305Z,8.63
2022-08-26T12:53:22.823Z,8.30
2022-08-26T12:56:05.296Z,9.63
2022-08-26T12:58:37.547Z,9.77
2022-08-26T13:01:04.464Z,8.35
2022-08-26T13:03:34.197Z,7.60
2022-08-26T13:06:17.425Z,8.30
2022-08-26T13:08:46.869Z,8.30
2022-08-26T13:11:19.519Z,9.38
2022-08-26T13:13:52.179Z,8.40
2022-08-26T13:16:21.856Z,9.05
2022-08-26T13:18:51.629Z,9.63
2022-08-26T13:21:24.692Z,9.23
2022-08-26T13:23:52.256Z,8.43
2022-08-26T13:26:19.937Z,9.13
2022-08-26T13:28:49.466Z,9.88
2022-08-26T13:31:31.266Z,10.10
2022-08-26T13:33:58.461Z,8.50
2022-08-26T13:36:25.425Z,9.05
2022-08-26T13:38:52.232Z,10.80
2022-08-26T13:41:28.921Z,9.73
2022-08-26T13:43:56.845Z,8.80
2022-08-26T13:46:26.966Z,8.32
2022-08-26T13:48:54.582Z,8.23
2022-08-26T13:51:22.803Z,7.85
2022-08-26T13:53:50.688Z,9.35
2022-08-26T13:56:18.851Z,8.43
2022-08-26T13:58:46.562Z,7.85
2022-08-26T14:01:15.658Z,7.28
2022-08-26T14:03:43.715Z,6.32
2022-08-26T14:06:11.324Z,5.68
2022-08-26T14:08:39.078Z,5.63
2022-08-26T14:11:06.522Z,5.03
2022-08-26T14:13:33.511Z,4.38
2022-08-26T14:16:01.826Z,5.00
2022-08-26T14:18:37.337Z,4.75
2022-08-26T14:21:12.795Z,4.25
2022-08-26T14:23:40.250Z,2.80
2022-08-26T14:26:12.024Z,3.35
2022-08-26T14:28:55.256Z,2.70
2022-08-26T14:31:26.901Z,2.95
2022-08-26T14:33:54.672Z,3.65
2022-08-26T14:36:33.396Z,3.28
2022-08-26T14:39:05.969Z,3.00
2022-08-26T14:41:34.397Z,3.50
2022-08-26T14:44:06.270Z,5.13
2022-08-26T14:46:49.669Z,7.55
2022-08-26T14:49:17.741Z,7.65
2022-08-26T14:51:44.759Z,9.13
2022-08-26T14:54:12.675Z,9.40
2022-08-26T14:57:01.261Z,12.25
2022-08-26T14:59:31.208Z,10.82
2022-08-26T15:01:58.361Z,9.90
2022-08-26T15:04:25.341Z,10.27
2022-08-26T15:06:54.069Z,9.98
2022-08-26T15:09:22.235Z,8.50
2022-08-26T15:11:49.497Z,9.07
2022-08-26T15:14:19.345Z,8.77
2022-08-26T15:16:51.380Z,7.88
2022-08-26T15:19:18.922Z,7.68
2022-08-26T15:21:47.154Z,7.53
2022-08-26T15:24:15.550Z,6.97
2022-08-26T15:26:43.287Z,6.97
2022-08-26T15:29:10.207Z,7.00
2022-08-26T15:31:37.120Z,8.10
2022-08-26T15:34:11.086Z,8.60
2022-08-26T15:36:42.786Z,8.43
2022-08-26T15:39:09.693Z,9.00
2022-08-26T15:41:37.165Z,9.13
2022-08-26T15:44:06.132Z,10.05
2022-08-26T15:46:33.609Z,10.10
2022-08-26T15:49:01.053Z,10.73
2022-08-26T15:51:33.063Z,9.93
2022-08-26T15:54:02.678Z,10.38
2022-08-26T15:56:34.608Z,8.98
2022-08-26T15:59:02.324Z,9.20
2022-08-26T16:01:31.500Z,9.30
2022-08-26T16:03:59.627Z,7.72
2022-08-26T16:06:30.264Z,7.88
2022-08-26T16:08:57.496Z,7.47
2022-08-26T16:11:25.414Z,7.32
2022-08-26T16:13:52.764Z,7.95
2022-08-26T16:16:21.460Z,7.13
2022-08-26T16:18:49.618Z,6.28
2022-08-26T16:21:19.687Z,5.78
2022-08-26T16:23:47.228Z,6.18
2022-08-26T16:26:21.844Z,5.82
2022-08-26T16:28:48.744Z,5.47
2022-08-26T16:31:15.962Z,5.97
2022-08-26T16:33:42.873Z,5.65
2022-08-26T16:36:10.626Z,5.15
2022-08-26T16:38:38.868Z,5.82
2022-08-26T16:41:06.471Z,6.00
2022-08-26T16:43:34.191Z,5.43
2022-08-26T16:46:01.047Z,5.55
2022-08-26T16:48:27.966Z,5.47
2022-08-26T16:50:55.730Z,5.10
2022-08-26T16:53:22.925Z,4.93
2022-08-26T16:55:50.373Z,4.60
2022-08-26T16:58:18.356Z,4.85
2022-08-26T17:00:45.405Z,4.90
2022-08-26T17:03:15.990Z,4.80
2022-08-26T17:05:42.881Z,4.28
2022-08-26T17:08:10.206Z,4.63
2022-08-26T17:10:37.867Z,4.45
2022-08-26T17:13:04.902Z,3.40
2022-08-26T17:15:32.089Z,4.13
2022-08-26T17:17:59.134Z,3.58
2022-08-26T17:20:26.458Z,3.72
2022-08-26T17:22:55.470Z,4.03
2022-08-26T17:25:29.078Z,4.35
2022-08-26T17:30:28.241Z,3.72
2022-08-26T17:32:58.436Z,3.70
2022-08-26T17:35:26.707Z,3.35
2022-08-26T17:37:56.126Z,2.47
2022-08-26T17:40:25.129Z,3.17
2022-08-26T17:42:52.310Z,2.80
2022-08-26T17:47:54.351Z,2.42
2022-08-26T17:50:21.309Z,2.40
2022-08-26T17:52:48.263Z,2.03
2022-08-26T17:55:16.875Z,2.17
2022-08-26T17:57:44.540Z,1.80
2022-08-26T18:00:23.443Z,1.98
2022-08-26T18:02:50.302Z,1.95
2022-08-26T18:05:17.819Z,1.95
2022-08-26T18:07:44.947Z,2.30
2022-08-26T18:10:15.449Z,1.90
2022-08-26T18:12:42.837Z,1.83
2022-08-26T18:15:11.871Z,2.78
2022-08-26T18:17:39.929Z,2.15
2022-08-26T18:20:13.206Z,2.50
2022-08-26T18:22:40.223Z,2.13
2022-08-26T18:25:08.337Z,2.35
2022-08-26T18:27:36.356Z,2.40
2022-08-26T18:30:07.049Z,2.60
2022-08-26T18:32:33.922Z,2.05
2022-08-26T18:35:00.775Z,2.33
2022-08-26T18:37:31.027Z,2.25
2022-08-26T18:39:59.639Z,2.35
2022-08-26T18:42:27.217Z,1.98
2022-08-26T18:44:54.433Z,1.77
2022-08-26T18:47:21.489Z,2.20
2022-08-26T18:49:48.747Z,2.28
2022-08-26T18:52:15.901Z,1.98
2022-08-26T18:54:43.212Z,2.60
2022-08-26T18:57:11.604Z,2.45
2022-08-26T18:59:38.806Z,1.98
2022-08-26T19:02:05.804Z,2.38
2022-08-26T19:04:32.857Z,1.88
2022-08-26T19:06:59.803Z,1.60
2022-08-26T19:09:26.696Z,1.80
2022-08-26T19:14:21.290Z,1.17
2022-08-26T19:16:50.095Z,1.10
2022-08-26T19:19:17.224Z,2.20
2022-08-26T19:21:44.415Z,2.08
2022-08-26T19:24:17.271Z,1.75
2022-08-26T19:26:46.388Z,2.13
2022-08-26T19:29:13.834Z,2.15
2022-08-26T19:31:42.239Z,2.63
2022-08-26T19:34:11.068Z,3.35
2022-08-26T19:36:38.589Z,3.60
2022-08-26T19:39:09.999Z,2.70
2022-08-26T19:41:38.936Z,2.90
2022-08-26T19:44:13.107Z,2.78
2022-08-26T19:46:40.197Z,2.38
2022-08-26T19:49:07.333Z,2.20
2022-08-26T19:51:35.813Z,3.00
2022-08-26T19:54:02.792Z,3.85
2022-08-26T19:56:29.822Z,4.32
2022-08-26T19:58:56.855Z,3.78
2022-08-26T20:01:24.170Z,3.70
2022-08-26T20:03:51.098Z,4.18
2022-08-26T20:06:18.178Z,4.63
2022-08-26T20:08:45.561Z,4.68
2022-08-26T20:11:16.202Z,4.80
2022-08-26T20:13:44.573Z,3.63
2022-08-26T20:16:12.249Z,4.35
2022-08-26T20:19:03.780Z,4.10
2022-08-26T20:21:35.659Z,3.22
2022-08-26T20:24:08.331Z,3.10
2022-08-26T20:26:37.207Z,4.05
2022-08-26T20:29:06.579Z,3.50
2022-08-26T20:31:35.120Z,5.15
2022-08-26T20:34:02.653Z,4.60
2022-08-26T20:36:30.979Z,4.22
2022-08-26T20:38:58.906Z,4.85
2022-08-26T20:41:26.276Z,4.53
2022-08-26T20:43:53.944Z,3.53
2022-08-26T20:46:29.755Z,3.42
2022-08-26T20:48:57.709Z,3.50
2022-08-26T20:51:25.159Z,3.35
2022-08-26T20:53:52.128Z,3.00
2022-08-26T20:56:23.777Z,2.78
2022-08-26T20:58:56.467Z,2.50
2022-08-26T21:01:30.761Z,2.08
2022-08-26T21:03:57.755Z,2.15
2022-08-26T21:06:24.952Z,2.00
2022-08-26T21:08:54.392Z,1.55
2022-08-26T21:11:22.589Z,1.67
2022-08-26T21:14:04.345Z,1.60
2022-08-26T21:16:36.174Z,2.10
2022-08-26T21:19:09.184Z,1.88
2022-08-26T21:21:36.492Z,1.70
2022-08-26T21:24:03.939Z,1.98
2022-08-26T21:26:33.966Z,1.60
2022-08-26T21:29:02.131Z,1.40
2022-08-26T21:31:29.838Z,1.50
2022-08-26T21:33:57.576Z,1.50
2022-08-26T21:36:24.495Z,1.30
2022-08-26T21:38:51.371Z,1.10
2022-08-26T21:41:22.115Z,1.30
2022-08-26T21:43:50.606Z,1.10
2022-08-26T21:46:21.942Z,1.10
2022-08-26T21:48:53.746Z,1.50
2022-08-26T21:51:23.647Z,1.58
2022-08-26T21:53:52.975Z,1.73
2022-08-26T21:56:21.220Z,1.90
2022-08-26T21:58:48.648Z,1.40
2022-08-26T22:01:21.868Z,1.27
2022-08-26T22:03:50.158Z,0.90
2022-08-26T22:06:20.777Z,0.80
2022-08-26T22:08:47.930Z,0.90
2022-08-26T22:11:17.946Z,0.80
2022-08-26T22:13:45.864Z,1.05
2022-08-26T22:16:13.392Z,0.60
2022-08-26T22:18:43.841Z,0.90
2022-08-26T22:21:19.715Z,0.93
2022-08-26T22:23:47.671Z,1.10
2022-08-26T22:26:20.662Z,0.95
2022-08-26T22:28:59.143Z,1.33
2022-08-26T22:31:35.292Z,1.27
2022-08-26T22:34:10.232Z,2.40
2022-08-26T22:36:42.903Z,2.80
2022-08-26T22:39:12.619Z,2.00
2022-08-26T22:41:40.176Z,1.75
2022-08-26T22:44:11.800Z,2.40
2022-08-26T22:46:40.211Z,2.10
2022-08-26T22:49:10.345Z,2.95
2022-08-26T22:51:37.448Z,2.17
2022-08-26T22:54:04.962Z,3.03
2022-08-26T22:56:31.886Z,3.17
2022-08-26T22:58:58.810Z,2.60
2022-08-26T23:01:25.862Z,2.10
2022-08-26T23:03:52.966Z,2.22
2022-08-26T23:06:19.854Z,2.67
2022-08-26T23:08:47.573Z,1.50
2022-08-26T23:11:15.027Z,1.63
2022-08-26T23:13:42.481Z,1.95
2022-08-26T23:16:12.034Z,1.90
2022-08-26T23:18:40.823Z,1.42
2022-08-26T23:21:08.438Z,1.33
2022-08-26T23:23:38.533Z,1.52
2022-08-26T23:26:07.634Z,1.40
2022-08-26T23:28:36.352Z,1.45
2022-08-26T23:31:03.509Z,1.10
2022-08-26T23:33:50.360Z,1.17
2022-08-26T23:36:18.443Z,1.20
2022-08-26T23:38:52.926Z,1.10
2022-08-26T23:41:26.928Z,1.40
2022-08-26T23:43:54.174Z,1.50
2022-08-26T23:46:21.040Z,1.10
2022-08-26T23:48:47.931Z,0.90
2022-08-26T23:51:33.521Z,1.13
2022-08-26T23:54:00.480Z,1.15
2022-08-26T23:56:29.142Z,1.27
2022-08-26T23:58:56.674Z,1.15
